sensor_id;sensor_type;location;lat;lon;timestamp;P1;durP1;ratioP1;P2;durP2;ratioP2
43670;SDS011;29267;50.906;7.248;2024-03-25T00:00:18;12.70;;;3.50;;
43670;SDS011;29267;50.906;7.248;2024-03-25T00:02:46;17.77;;;3.35;;
43670;SDS011;29267;50.906;7.248;2024-03-25T00:05:12;15.68;;;2.92;;
43670;SDS011;29267;50.906;7.248;2024-03-25T00:07:40;9.57;;;2.90;;
43670;SDS011;29267;50.906;7.248;2024-03-25T00:10:06;16.17;;;3.38;;
43670;SDS011;29267;50.906;7.248;2024-03-25T00:12:33;9.75;;;2.53;;
43670;SDS011;29267;50.906;7.248;2024-03-25T00:15:02;13.10;;;2.80;;
43670;SDS011;29267;50.906;7.248;2024-03-25T00:17:27;22.90;;;3.80;;
43670;SDS011;29267;50.906;7.248;2024-03-25T00:19:53;10.05;;;3.40;;
43670;SDS011;29267;50.906;7.248;2024-03-25T00:22:19;19.80;;;4.15;;
43670;SDS011;29267;50.906;7.248;2024-03-25T00:24:47;17.80;;;4.70;;
43670;SDS011;29267;50.906;7.248;2024-03-25T00:27:13;23.13;;;3.08;;
43670;SDS011;29267;50.906;7.248;2024-03-25T00:29:39;14.80;;;3.35;;
43670;SDS011;29267;50.906;7.248;2024-03-25T00:32:05;13.93;;;3.50;;
43670;SDS011;29267;50.906;7.248;2024-03-25T00:34:31;17.40;;;2.72;;
43670;SDS011;29267;50.906;7.248;2024-03-25T00:36:58;18.27;;;4.32;;
43670;SDS011;29267;50.906;7.248;2024-03-25T00:39:24;16.65;;;2.95;;
43670;SDS011;29267;50.906;7.248;2024-03-25T00:41:50;18.35;;;3.53;;
43670;SDS011;29267;50.906;7.248;2024-03-25T00:44:16;12.50;;;3.50;;
43670;SDS011;29267;50.906;7.248;2024-03-25T00:46:42;15.88;;;3.42;;
43670;SDS011;29267;50.906;7.248;2024-03-25T00:49:08;17.20;;;3.85;;
43670;SDS011;29267;50.906;7.248;2024-03-25T00:51:34;19.02;;;3.97;;
43670;SDS011;29267;50.906;7.248;2024-03-25T00:54:00;13.48;;;3.25;;
43670;SDS011;29267;50.906;7.248;2024-03-25T00:56:26;18.10;;;4.13;;
43670;SDS011;29267;50.906;7.248;2024-03-25T00:58:52;17.15;;;4.10;;
43670;SDS011;29267;50.906;7.248;2024-03-25T01:01:18;12.98;;;4.22;;
43670;SDS011;29267;50.906;7.248;2024-03-25T01:03:43;14.82;;;3.05;;
43670;SDS011;29267;50.906;7.248;2024-03-25T01:06:09;22.80;;;4.35;;
43670;SDS011;29267;50.906;7.248;2024-03-25T01:08:35;15.25;;;3.63;;
43670;SDS011;29267;50.906;7.248;2024-03-25T01:11:00;25.80;;;3.97;;
43670;SDS011;29267;50.906;7.248;2024-03-25T01:13:26;16.27;;;3.42;;
43670;SDS011;29267;50.906;7.248;2024-03-25T01:15:51;19.50;;;4.28;;
43670;SDS011;29267;50.906;7.248;2024-03-25T01:18:17;10.10;;;3.00;;
43670;SDS011;29267;50.906;7.248;2024-03-25T01:20:43;13.85;;;3.13;;
43670;SDS011;29267;50.906;7.248;2024-03-25T01:23:09;14.68;;;3.95;;
43670;SDS011;29267;50.906;7.248;2024-03-25T01:25:35;16.13;;;3.95;;
43670;SDS011;29267;50.906;7.248;2024-03-25T01:28:01;18.80;;;3.75;;
43670;SDS011;29267;50.906;7.248;2024-03-25T01:30:27;24.63;;;5.60;;
43670;SDS011;29267;50.906;7.248;2024-03-25T01:32:53;19.58;;;4.43;;
43670;SDS011;29267;50.906;7.248;2024-03-25T01:35:19;18.23;;;3.50;;
43670;SDS011;29267;50.906;7.248;2024-03-25T01:37:45;20.67;;;3.90;;
43670;SDS011;29267;50.906;7.248;2024-03-25T01:40:11;17.83;;;3.42;;
43670;SDS011;29267;50.906;7.248;2024-03-25T01:42:37;10.57;;;3.28;;
43670;SDS011;29267;50.906;7.248;2024-03-25T01:45:03;22.90;;;4.55;;
43670;SDS011;29267;50.906;7.248;2024-03-25T01:47:30;22.75;;;3.95;;
43670;SDS011;29267;50.906;7.248;2024-03-25T01:49:58;19.08;;;3.88;;
43670;SDS011;29267;50.906;7.248;2024-03-25T01:52:25;13.18;;;3.40;;
43670;SDS011;29267;50.906;7.248;2024-03-25T01:54:52;22.30;;;5.05;;
43670;SDS011;29267;50.906;7.248;2024-03-25T01:57:18;18.00;;;4.05;;
43670;SDS011;29267;50.906;7.248;2024-03-25T01:59:44;31.13;;;4.70;;
43670;SDS011;29267;50.906;7.248;2024-03-25T02:02:11;26.45;;;3.95;;
43670;SDS011;29267;50.906;7.248;2024-03-25T02:04:38;19.65;;;4.68;;
43670;SDS011;29267;50.906;7.248;2024-03-25T02:07:05;10.32;;;3.30;;
43670;SDS011;29267;50.906;7.248;2024-03-25T02:09:32;11.32;;;2.95;;
43670;SDS011;29267;50.906;7.248;2024-03-25T02:11:59;20.90;;;4.05;;
43670;SDS011;29267;50.906;7.248;2024-03-25T02:14:25;23.27;;;4.28;;
43670;SDS011;29267;50.906;7.248;2024-03-25T02:16:51;14.57;;;3.80;;
43670;SDS011;29267;50.906;7.248;2024-03-25T02:19:16;13.75;;;3.85;;
43670;SDS011;29267;50.906;7.248;2024-03-25T02:21:43;12.80;;;3.72;;
43670;SDS011;29267;50.906;7.248;2024-03-25T02:24:09;21.95;;;4.03;;
43670;SDS011;29267;50.906;7.248;2024-03-25T02:26:35;17.52;;;3.15;;
43670;SDS011;29267;50.906;7.248;2024-03-25T02:29:01;32.33;;;4.57;;
43670;SDS011;29267;50.906;7.248;2024-03-25T02:31:27;17.58;;;3.53;;
43670;SDS011;29267;50.906;7.248;2024-03-25T02:33:53;14.90;;;3.08;;
43670;SDS011;29267;50.906;7.248;2024-03-25T02:36:18;13.95;;;3.08;;
43670;SDS011;29267;50.906;7.248;2024-03-25T02:38:44;13.48;;;3.13;;
43670;SDS011;29267;50.906;7.248;2024-03-25T02:41:09;33.58;;;3.80;;
43670;SDS011;29267;50.906;7.248;2024-03-25T02:43:35;20.05;;;2.97;;
43670;SDS011;29267;50.906;7.248;2024-03-25T02:46:01;17.80;;;4.65;;
43670;SDS011;29267;50.906;7.248;2024-03-25T02:48:27;16.95;;;3.67;;
43670;SDS011;29267;50.906;7.248;2024-03-25T02:50:52;22.60;;;5.40;;
43670;SDS011;29267;50.906;7.248;2024-03-25T02:53:18;13.90;;;2.83;;
43670;SDS011;29267;50.906;7.248;2024-03-25T02:55:43;13.18;;;3.53;;
43670;SDS011;29267;50.906;7.248;2024-03-25T02:58:09;12.80;;;3.30;;
43670;SDS011;29267;50.906;7.248;2024-03-25T03:00:35;23.02;;;3.70;;
43670;SDS011;29267;50.906;7.248;2024-03-25T03:03:00;24.70;;;3.45;;
43670;SDS011;29267;50.906;7.248;2024-03-25T03:05:26;32.97;;;3.65;;
43670;SDS011;29267;50.906;7.248;2024-03-25T03:07:52;18.13;;;2.97;;
43670;SDS011;29267;50.906;7.248;2024-03-25T03:10:18;26.55;;;3.55;;
43670;SDS011;29267;50.906;7.248;2024-03-25T03:12:43;21.73;;;2.90;;
43670;SDS011;29267;50.906;7.248;2024-03-25T03:15:09;28.52;;;3.25;;
43670;SDS011;29267;50.906;7.248;2024-03-25T03:17:35;21.92;;;5.20;;
43670;SDS011;29267;50.906;7.248;2024-03-25T03:20:01;10.77;;;3.40;;
43670;SDS011;29267;50.906;7.248;2024-03-25T03:22:27;18.10;;;4.22;;
43670;SDS011;29267;50.906;7.248;2024-03-25T03:24:53;22.92;;;3.30;;
43670;SDS011;29267;50.906;7.248;2024-03-25T03:27:18;17.70;;;3.53;;
43670;SDS011;29267;50.906;7.248;2024-03-25T03:29:44;29.45;;;4.35;;
43670;SDS011;29267;50.906;7.248;2024-03-25T03:32:09;13.10;;;3.30;;
43670;SDS011;29267;50.906;7.248;2024-03-25T03:34:35;14.65;;;3.28;;
43670;SDS011;29267;50.906;7.248;2024-03-25T03:37:01;11.88;;;3.45;;
43670;SDS011;29267;50.906;7.248;2024-03-25T03:39:26;23.58;;;4.22;;
43670;SDS011;29267;50.906;7.248;2024-03-25T03:41:52;10.85;;;2.72;;
43670;SDS011;29267;50.906;7.248;2024-03-25T03:44:18;18.67;;;3.05;;
43670;SDS011;29267;50.906;7.248;2024-03-25T03:46:43;14.27;;;4.03;;
43670;SDS011;29267;50.906;7.248;2024-03-25T03:49:09;20.85;;;3.03;;
43670;SDS011;29267;50.906;7.248;2024-03-25T03:51:34;20.88;;;5.05;;
43670;SDS011;29267;50.906;7.248;2024-03-25T03:54:00;15.88;;;3.38;;
43670;SDS011;29267;50.906;7.248;2024-03-25T03:56:25;16.67;;;3.75;;
43670;SDS011;29267;50.906;7.248;2024-03-25T03:58:51;26.45;;;3.38;;
43670;SDS011;29267;50.906;7.248;2024-03-25T04:01:17;13.05;;;3.05;;
43670;SDS011;29267;50.906;7.248;2024-03-25T04:03:43;20.55;;;3.28;;
43670;SDS011;29267;50.906;7.248;2024-03-25T04:06:12;10.98;;;3.15;;
43670;SDS011;29267;50.906;7.248;2024-03-25T04:08:39;24.92;;;4.18;;
43670;SDS011;29267;50.906;7.248;2024-03-25T04:11:05;25.98;;;4.70;;
43670;SDS011;29267;50.906;7.248;2024-03-25T04:13:32;16.05;;;3.78;;
43670;SDS011;29267;50.906;7.248;2024-03-25T04:16:02;17.35;;;3.47;;
43670;SDS011;29267;50.906;7.248;2024-03-25T04:18:31;22.25;;;4.50;;
43670;SDS011;29267;50.906;7.248;2024-03-25T04:20:58;18.40;;;3.53;;
43670;SDS011;29267;50.906;7.248;2024-03-25T04:23:24;14.02;;;2.58;;
43670;SDS011;29267;50.906;7.248;2024-03-25T04:25:50;17.25;;;3.17;;
43670;SDS011;29267;50.906;7.248;2024-03-25T04:28:16;24.08;;;3.85;;
43670;SDS011;29267;50.906;7.248;2024-03-25T04:30:42;15.65;;;3.08;;
43670;SDS011;29267;50.906;7.248;2024-03-25T04:33:07;22.90;;;3.47;;
43670;SDS011;29267;50.906;7.248;2024-03-25T04:35:33;22.02;;;3.65;;
43670;SDS011;29267;50.906;7.248;2024-03-25T04:37:59;18.38;;;3.53;;
43670;SDS011;29267;50.906;7.248;2024-03-25T04:40:25;13.60;;;3.92;;
43670;SDS011;29267;50.906;7.248;2024-03-25T04:42:50;21.92;;;3.35;;
43670;SDS011;29267;50.906;7.248;2024-03-25T04:45:16;13.85;;;3.33;;
43670;SDS011;29267;50.906;7.248;2024-03-25T04:47:42;20.65;;;3.25;;
43670;SDS011;29267;50.906;7.248;2024-03-25T04:50:07;20.92;;;3.65;;
43670;SDS011;29267;50.906;7.248;2024-03-25T04:52:34;24.85;;;3.28;;
43670;SDS011;29267;50.906;7.248;2024-03-25T04:54:59;18.02;;;3.83;;
43670;SDS011;29267;50.906;7.248;2024-03-25T04:57:25;13.35;;;2.85;;
43670;SDS011;29267;50.906;7.248;2024-03-25T04:59:51;14.65;;;3.03;;
43670;SDS011;29267;50.906;7.248;2024-03-25T05:02:16;23.92;;;3.80;;
43670;SDS011;29267;50.906;7.248;2024-03-25T05:04:42;15.43;;;3.58;;
43670;SDS011;29267;50.906;7.248;2024-03-25T05:07:08;22.65;;;4.03;;
43670;SDS011;29267;50.906;7.248;2024-03-25T05:09:33;21.05;;;4.30;;
43670;SDS011;29267;50.906;7.248;2024-03-25T05:11:59;14.60;;;3.85;;
43670;SDS011;29267;50.906;7.248;2024-03-25T05:14:24;37.88;;;3.40;;
43670;SDS011;29267;50.906;7.248;2024-03-25T05:16:50;18.23;;;3.15;;
43670;SDS011;29267;50.906;7.248;2024-03-25T05:19:17;16.00;;;3.78;;
43670;SDS011;29267;50.906;7.248;2024-03-25T05:21:43;15.43;;;3.95;;
43670;SDS011;29267;50.906;7.248;2024-03-25T05:24:09;11.40;;;4.47;;
43670;SDS011;29267;50.906;7.248;2024-03-25T05:26:34;23.42;;;3.88;;
43670;SDS011;29267;50.906;7.248;2024-03-25T05:29:00;25.17;;;4.63;;
43670;SDS011;29267;50.906;7.248;2024-03-25T05:31:25;20.65;;;4.05;;
43670;SDS011;29267;50.906;7.248;2024-03-25T05:33:51;19.92;;;3.45;;
43670;SDS011;29267;50.906;7.248;2024-03-25T05:36:17;27.33;;;4.80;;
43670;SDS011;29267;50.906;7.248;2024-03-25T05:38:42;16.45;;;4.28;;
43670;SDS011;29267;50.906;7.248;2024-03-25T05:41:08;43.72;;;7.18;;
43670;SDS011;29267;50.906;7.248;2024-03-25T05:43:34;20.33;;;7.28;;
43670;SDS011;29267;50.906;7.248;2024-03-25T05:46:00;30.83;;;7.32;;
43670;SDS011;29267;50.906;7.248;2024-03-25T05:48:25;26.55;;;8.85;;
43670;SDS011;29267;50.906;7.248;2024-03-25T05:51:04;31.95;;;10.70;;
43670;SDS011;29267;50.906;7.248;2024-03-25T05:53:31;67.07;;;18.00;;
43670;SDS011;29267;50.906;7.248;2024-03-25T05:55:57;51.58;;;19.40;;
43670;SDS011;29267;50.906;7.248;2024-03-25T05:58:24;44.42;;;14.95;;
43670;SDS011;29267;50.906;7.248;2024-03-25T06:00:50;32.22;;;9.85;;
43670;SDS011;29267;50.906;7.248;2024-03-25T06:03:17;41.92;;;8.85;;
43670;SDS011;29267;50.906;7.248;2024-03-25T06:05:43;22.63;;;5.43;;
43670;SDS011;29267;50.906;7.248;2024-03-25T06:08:09;24.35;;;5.47;;
43670;SDS011;29267;50.906;7.248;2024-03-25T06:10:43;33.85;;;6.65;;
43670;SDS011;29267;50.906;7.248;2024-03-25T06:13:09;23.50;;;5.68;;
43670;SDS011;29267;50.906;7.248;2024-03-25T06:15:35;18.13;;;5.43;;
43670;SDS011;29267;50.906;7.248;2024-03-25T06:18:00;18.42;;;6.03;;
43670;SDS011;29267;50.906;7.248;2024-03-25T06:20:26;23.67;;;5.05;;
43670;SDS011;29267;50.906;7.248;2024-03-25T06:22:52;20.27;;;4.40;;
43670;SDS011;29267;50.906;7.248;2024-03-25T06:25:17;15.68;;;4.05;;
43670;SDS011;29267;50.906;7.248;2024-03-25T06:27:43;24.52;;;4.75;;
43670;SDS011;29267;50.906;7.248;2024-03-25T06:30:09;18.40;;;4.43;;
43670;SDS011;29267;50.906;7.248;2024-03-25T06:32:54;12.73;;;4.97;;
43670;SDS011;29267;50.906;7.248;2024-03-25T06:35:38;15.65;;;4.72;;
43670;SDS011;29267;50.906;7.248;2024-03-25T06:38:04;11.07;;;3.72;;
43670;SDS011;29267;50.906;7.248;2024-03-25T06:40:29;15.30;;;3.97;;
43670;SDS011;29267;50.906;7.248;2024-03-25T06:42:56;9.55;;;2.85;;
43670;SDS011;29267;50.906;7.248;2024-03-25T06:45:22;17.35;;;3.08;;
43670;SDS011;29267;50.906;7.248;2024-03-25T06:47:48;14.48;;;3.67;;
43670;SDS011;29267;50.906;7.248;2024-03-25T06:50:14;18.48;;;3.42;;
43670;SDS011;29267;50.906;7.248;2024-03-25T06:52:39;16.40;;;3.35;;
43670;SDS011;29267;50.906;7.248;2024-03-25T06:55:05;15.88;;;3.00;;
43670;SDS011;29267;50.906;7.248;2024-03-25T06:57:31;9.75;;;3.55;;
43670;SDS011;29267;50.906;7.248;2024-03-25T06:59:57;11.85;;;3.28;;
43670;SDS011;29267;50.906;7.248;2024-03-25T07:02:23;14.05;;;3.63;;
43670;SDS011;29267;50.906;7.248;2024-03-25T07:04:49;10.50;;;3.28;;
43670;SDS011;29267;50.906;7.248;2024-03-25T07:07:15;11.50;;;2.78;;
43670;SDS011;29267;50.906;7.248;2024-03-25T07:09:40;12.63;;;4.07;;
43670;SDS011;29267;50.906;7.248;2024-03-25T07:12:06;12.73;;;3.55;;
43670;SDS011;29267;50.906;7.248;2024-03-25T07:14:32;13.38;;;4.05;;
43670;SDS011;29267;50.906;7.248;2024-03-25T07:16:58;11.95;;;3.60;;
43670;SDS011;29267;50.906;7.248;2024-03-25T07:19:23;14.65;;;4.30;;
43670;SDS011;29267;50.906;7.248;2024-03-25T07:21:49;16.73;;;3.72;;
43670;SDS011;29267;50.906;7.248;2024-03-25T07:24:15;13.43;;;3.78;;
43670;SDS011;29267;50.906;7.248;2024-03-25T07:26:40;8.95;;;3.22;;
43670;SDS011;29267;50.906;7.248;2024-03-25T07:29:06;11.75;;;3.15;;
43670;SDS011;29267;50.906;7.248;2024-03-25T07:31:32;19.20;;;3.92;;
43670;SDS011;29267;50.906;7.248;2024-03-25T07:33:58;11.68;;;2.72;;
43670;SDS011;29267;50.906;7.248;2024-03-25T07:36:23;11.65;;;3.47;;
43670;SDS011;29267;50.906;7.248;2024-03-25T07:38:49;10.55;;;2.92;;
43670;SDS011;29267;50.906;7.248;2024-03-25T07:41:15;12.77;;;3.38;;
43670;SDS011;29267;50.906;7.248;2024-03-25T07:43:40;15.55;;;2.60;;
43670;SDS011;29267;50.906;7.248;2024-03-25T07:46:06;12.05;;;2.33;;
43670;SDS011;29267;50.906;7.248;2024-03-25T07:48:31;11.80;;;2.60;;
43670;SDS011;29267;50.906;7.248;2024-03-25T07:50:57;12.27;;;3.00;;
43670;SDS011;29267;50.906;7.248;2024-03-25T07:53:23;10.38;;;2.20;;
43670;SDS011;29267;50.906;7.248;2024-03-25T07:55:48;6.97;;;2.40;;
43670;SDS011;29267;50.906;7.248;2024-03-25T07:58:16;8.48;;;3.47;;
43670;SDS011;29267;50.906;7.248;2024-03-25T08:00:41;10.85;;;2.60;;
43670;SDS011;29267;50.906;7.248;2024-03-25T08:03:07;11.50;;;2.83;;
43670;SDS011;29267;50.906;7.248;2024-03-25T08:05:33;10.43;;;2.83;;
43670;SDS011;29267;50.906;7.248;2024-03-25T08:07:58;12.00;;;3.35;;
43670;SDS011;29267;50.906;7.248;2024-03-25T08:10:24;13.30;;;2.60;;
43670;SDS011;29267;50.906;7.248;2024-03-25T08:12:49;7.90;;;2.58;;
43670;SDS011;29267;50.906;7.248;2024-03-25T08:15:15;12.48;;;3.13;;
43670;SDS011;29267;50.906;7.248;2024-03-25T08:17:40;12.27;;;2.58;;
43670;SDS011;29267;50.906;7.248;2024-03-25T08:20:06;13.48;;;3.65;;
43670;SDS011;29267;50.906;7.248;2024-03-25T08:22:33;13.23;;;3.05;;
43670;SDS011;29267;50.906;7.248;2024-03-25T08:24:59;11.25;;;3.38;;
43670;SDS011;29267;50.906;7.248;2024-03-25T08:27:24;12.25;;;3.35;;
43670;SDS011;29267;50.906;7.248;2024-03-25T08:29:50;14.30;;;3.88;;
43670;SDS011;29267;50.906;7.248;2024-03-25T08:32:18;13.25;;;3.63;;
43670;SDS011;29267;50.906;7.248;2024-03-25T08:34:44;16.05;;;3.33;;
43670;SDS011;29267;50.906;7.248;2024-03-25T08:37:10;15.48;;;3.53;;
43670;SDS011;29267;50.906;7.248;2024-03-25T08:39:36;11.23;;;2.70;;
43670;SDS011;29267;50.906;7.248;2024-03-25T08:42:01;11.18;;;2.60;;
43670;SDS011;29267;50.906;7.248;2024-03-25T08:44:27;17.48;;;3.22;;
43670;SDS011;29267;50.906;7.248;2024-03-25T08:46:53;10.95;;;2.75;;
43670;SDS011;29267;50.906;7.248;2024-03-25T08:49:18;13.70;;;4.03;;
43670;SDS011;29267;50.906;7.248;2024-03-25T08:51:45;18.65;;;3.78;;
43670;SDS011;29267;50.906;7.248;2024-03-25T08:54:10;14.25;;;2.88;;
43670;SDS011;29267;50.906;7.248;2024-03-25T08:56:36;8.10;;;2.83;;
43670;SDS011;29267;50.906;7.248;2024-03-25T08:59:01;13.77;;;2.85;;
43670;SDS011;29267;50.906;7.248;2024-03-25T09:01:28;7.88;;;1.98;;
43670;SDS011;29267;50.906;7.248;2024-03-25T09:03:54;24.20;;;2.55;;
43670;SDS011;29267;50.906;7.248;2024-03-25T09:06:19;9.27;;;2.45;;
43670;SDS011;29267;50.906;7.248;2024-03-25T09:08:45;7.95;;;2.55;;
43670;SDS011;29267;50.906;7.248;2024-03-25T09:11:29;11.13;;;2.45;;
43670;SDS011;29267;50.906;7.248;2024-03-25T09:13:54;9.07;;;2.72;;
43670;SDS011;29267;50.906;7.248;2024-03-25T09:16:20;7.72;;;2.10;;
43670;SDS011;29267;50.906;7.248;2024-03-25T09:18:46;5.80;;;1.70;;
43670;SDS011;29267;50.906;7.248;2024-03-25T09:21:11;8.10;;;2.22;;
43670;SDS011;29267;50.906;7.248;2024-03-25T09:23:37;15.68;;;2.95;;
43670;SDS011;29267;50.906;7.248;2024-03-25T09:26:03;12.75;;;2.83;;
43670;SDS011;29267;50.906;7.248;2024-03-25T09:28:29;8.60;;;2.42;;
43670;SDS011;29267;50.906;7.248;2024-03-25T09:30:54;6.35;;;1.92;;
43670;SDS011;29267;50.906;7.248;2024-03-25T09:33:20;10.25;;;2.80;;
43670;SDS011;29267;50.906;7.248;2024-03-25T09:35:45;11.55;;;2.38;;
43670;SDS011;29267;50.906;7.248;2024-03-25T09:38:12;12.02;;;2.40;;
43670;SDS011;29267;50.906;7.248;2024-03-25T09:40:40;10.32;;;2.38;;
43670;SDS011;29267;50.906;7.248;2024-03-25T09:43:07;8.07;;;2.05;;
43670;SDS011;29267;50.906;7.248;2024-03-25T09:45:46;10.18;;;1.95;;
43670;SDS011;29267;50.906;7.248;2024-03-25T09:48:13;12.38;;;2.28;;
43670;SDS011;29267;50.906;7.248;2024-03-25T09:50:42;6.68;;;2.55;;
43670;SDS011;29267;50.906;7.248;2024-03-25T09:53:11;8.60;;;1.83;;
43670;SDS011;29267;50.906;7.248;2024-03-25T09:55:37;8.55;;;1.77;;
43670;SDS011;29267;50.906;7.248;2024-03-25T09:58:03;6.28;;;1.55;;
43670;SDS011;29267;50.906;7.248;2024-03-25T10:00:30;4.63;;;1.70;;
43670;SDS011;29267;50.906;7.248;2024-03-25T10:02:55;10.38;;;2.83;;
43670;SDS011;29267;50.906;7.248;2024-03-25T10:05:21;10.55;;;2.45;;
43670;SDS011;29267;50.906;7.248;2024-03-25T10:07:46;9.70;;;2.50;;
43670;SDS011;29267;50.906;7.248;2024-03-25T10:10:12;12.95;;;2.35;;
43670;SDS011;29267;50.906;7.248;2024-03-25T10:12:38;6.78;;;2.70;;
43670;SDS011;29267;50.906;7.248;2024-03-25T10:15:06;13.73;;;3.22;;
43670;SDS011;29267;50.906;7.248;2024-03-25T10:17:31;7.65;;;2.42;;
43670;SDS011;29267;50.906;7.248;2024-03-25T10:19:57;7.88;;;2.33;;
43670;SDS011;29267;50.906;7.248;2024-03-25T10:22:23;13.40;;;1.80;;
43670;SDS011;29267;50.906;7.248;2024-03-25T10:24:48;11.57;;;2.08;;
43670;SDS011;29267;50.906;7.248;2024-03-25T10:27:19;4.22;;;1.83;;
43670;SDS011;29267;50.906;7.248;2024-03-25T10:29:53;11.63;;;2.92;;
43670;SDS011;29267;50.906;7.248;2024-03-25T10:32:22;12.82;;;2.03;;
43670;SDS011;29267;50.906;7.248;2024-03-25T10:34:53;7.15;;;3.03;;
43670;SDS011;29267;50.906;7.248;2024-03-25T10:37:19;5.75;;;2.20;;
43670;SDS011;29267;50.906;7.248;2024-03-25T10:39:49;7.15;;;1.95;;
43670;SDS011;29267;50.906;7.248;2024-03-25T10:42:18;11.00;;;1.70;;
43670;SDS011;29267;50.906;7.248;2024-03-25T10:44:44;7.78;;;1.55;;
43670;SDS011;29267;50.906;7.248;2024-03-25T10:47:14;9.23;;;1.70;;
43670;SDS011;29267;50.906;7.248;2024-03-25T10:50:19;3.42;;;1.58;;
43670;SDS011;29267;50.906;7.248;2024-03-25T10:55:06;11.07;;;1.73;;
43670;SDS011;29267;50.906;7.248;2024-03-25T10:57:32;9.88;;;1.83;;
43670;SDS011;29267;50.906;7.248;2024-03-25T10:59:59;5.40;;;1.65;;
43670;SDS011;29267;50.906;7.248;2024-03-25T11:02:26;10.68;;;1.90;;
43670;SDS011;29267;50.906;7.248;2024-03-25T11:04:53;11.35;;;1.90;;
43670;SDS011;29267;50.906;7.248;2024-03-25T11:07:27;7.70;;;1.58;;
43670;SDS011;29267;50.906;7.248;2024-03-25T11:10:07;8.20;;;1.60;;
43670;SDS011;29267;50.906;7.248;2024-03-25T11:12:36;7.18;;;1.60;;
43670;SDS011;29267;50.906;7.248;2024-03-25T11:15:03;8.43;;;2.40;;
43670;SDS011;29267;50.906;7.248;2024-03-25T11:17:30;11.10;;;1.80;;
43670;SDS011;29267;50.906;7.248;2024-03-25T11:20:07;5.22;;;1.67;;
43670;SDS011;29267;50.906;7.248;2024-03-25T11:22:46;6.45;;;1.23;;
43670;SDS011;29267;50.906;7.248;2024-03-25T11:25:13;3.20;;;1.23;;
43670;SDS011;29267;50.906;7.248;2024-03-25T11:27:38;5.60;;;1.35;;
43670;SDS011;29267;50.906;7.248;2024-03-25T11:30:05;6.30;;;2.05;;
43670;SDS011;29267;50.906;7.248;2024-03-25T11:32:42;8.98;;;1.80;;
43670;SDS011;29267;50.906;7.248;2024-03-25T11:35:08;6.38;;;1.75;;
43670;SDS011;29267;50.906;7.248;2024-03-25T11:37:38;3.55;;;1.23;;
43670;SDS011;29267;50.906;7.248;2024-03-25T11:40:07;7.63;;;1.73;;
43670;SDS011;29267;50.906;7.248;2024-03-25T11:42:38;8.38;;;1.60;;
43670;SDS011;29267;50.906;7.248;2024-03-25T11:45:04;7.13;;;1.50;;
43670;SDS011;29267;50.906;7.248;2024-03-25T11:47:39;11.05;;;1.95;;
43670;SDS011;29267;50.906;7.248;2024-03-25T11:50:07;6.78;;;1.48;;
43670;SDS011;29267;50.906;7.248;2024-03-25T11:52:34;4.63;;;1.73;;
43670;SDS011;29267;50.906;7.248;2024-03-25T11:55:00;11.48;;;2.20;;
43670;SDS011;29267;50.906;7.248;2024-03-25T11:57:25;3.53;;;1.08;;
43670;SDS011;29267;50.906;7.248;2024-03-25T11:59:52;6.65;;;1.85;;
43670;SDS011;29267;50.906;7.248;2024-03-25T12:02:18;4.05;;;1.65;;
43670;SDS011;29267;50.906;7.248;2024-03-25T12:04:44;3.35;;;0.98;;
43670;SDS011;29267;50.906;7.248;2024-03-25T12:07:13;6.20;;;1.50;;
43670;SDS011;29267;50.906;7.248;2024-03-25T12:09:39;8.98;;;1.38;;
43670;SDS011;29267;50.906;7.248;2024-03-25T12:12:23;6.88;;;1.67;;
43670;SDS011;29267;50.906;7.248;2024-03-25T12:14:50;8.60;;;1.50;;
43670;SDS011;29267;50.906;7.248;2024-03-25T12:17:17;6.30;;;2.47;;
43670;SDS011;29267;50.906;7.248;2024-03-25T12:19:43;3.05;;;1.15;;
43670;SDS011;29267;50.906;7.248;2024-03-25T12:22:10;6.38;;;2.00;;
43670;SDS011;29267;50.906;7.248;2024-03-25T12:24:35;7.10;;;1.85;;
43670;SDS011;29267;50.906;7.248;2024-03-25T12:27:01;9.02;;;1.80;;
43670;SDS011;29267;50.906;7.248;2024-03-25T12:29:28;5.40;;;1.10;;
43670;SDS011;29267;50.906;7.248;2024-03-25T12:31:56;5.32;;;1.30;;
43670;SDS011;29267;50.906;7.248;2024-03-25T12:34:24;7.07;;;1.38;;
43670;SDS011;29267;50.906;7.248;2024-03-25T12:36:50;4.70;;;1.38;;
43670;SDS011;29267;50.906;7.248;2024-03-25T12:39:19;6.03;;;1.48;;
43670;SDS011;29267;50.906;7.248;2024-03-25T12:41:44;8.25;;;1.50;;
43670;SDS011;29267;50.906;7.248;2024-03-25T12:44:13;6.07;;;1.60;;
43670;SDS011;29267;50.906;7.248;2024-03-25T12:46:39;7.28;;;1.67;;
43670;SDS011;29267;50.906;7.248;2024-03-25T12:49:05;4.78;;;1.02;;
43670;SDS011;29267;50.906;7.248;2024-03-25T12:51:31;3.13;;;1.23;;
43670;SDS011;29267;50.906;7.248;2024-03-25T12:53:57;4.10;;;1.17;;
43670;SDS011;29267;50.906;7.248;2024-03-25T12:56:23;6.47;;;1.23;;
43670;SDS011;29267;50.906;7.248;2024-03-25T12:58:50;2.63;;;1.48;;
43670;SDS011;29267;50.906;7.248;2024-03-25T13:01:16;3.45;;;1.20;;
43670;SDS011;29267;50.906;7.248;2024-03-25T13:03:41;5.82;;;1.50;;
43670;SDS011;29267;50.906;7.248;2024-03-25T13:06:07;5.63;;;1.20;;
43670;SDS011;29267;50.906;7.248;2024-03-25T13:08:33;4.63;;;1.30;;
43670;SDS011;29267;50.906;7.248;2024-03-25T13:10:58;4.63;;;1.20;;
43670;SDS011;29267;50.906;7.248;2024-03-25T13:13:25;8.57;;;1.75;;
43670;SDS011;29267;50.906;7.248;2024-03-25T13:15:50;5.90;;;1.13;;
43670;SDS011;29267;50.906;7.248;2024-03-25T13:18:17;6.13;;;1.40;;
43670;SDS011;29267;50.906;7.248;2024-03-25T13:20:46;4.43;;;1.13;;
43670;SDS011;29267;50.906;7.248;2024-03-25T13:23:11;1.92;;;1.25;;
43670;SDS011;29267;50.906;7.248;2024-03-25T13:25:37;4.93;;;1.02;;
43670;SDS011;29267;50.906;7.248;2024-03-25T13:30:29;4.82;;;1.42;;
43670;SDS011;29267;50.906;7.248;2024-03-25T13:32:56;4.75;;;1.23;;
43670;SDS011;29267;50.906;7.248;2024-03-25T13:35:22;5.32;;;1.25;;
43670;SDS011;29267;50.906;7.248;2024-03-25T13:37:47;3.75;;;1.10;;
43670;SDS011;29267;50.906;7.248;2024-03-25T13:40:13;7.75;;;1.20;;
43670;SDS011;29267;50.906;7.248;2024-03-25T13:42:39;4.85;;;1.10;;
43670;SDS011;29267;50.906;7.248;2024-03-25T13:45:05;5.22;;;1.10;;
43670;SDS011;29267;50.906;7.248;2024-03-25T13:47:31;5.60;;;1.33;;
43670;SDS011;29267;50.906;7.248;2024-03-25T13:50:00;6.97;;;1.98;;
43670;SDS011;29267;50.906;7.248;2024-03-25T13:52:29;3.33;;;1.50;;
43670;SDS011;29267;50.906;7.248;2024-03-25T13:54:56;2.92;;;0.80;;
43670;SDS011;29267;50.906;7.248;2024-03-25T13:57:21;6.00;;;1.02;;
43670;SDS011;29267;50.906;7.248;2024-03-25T13:59:47;3.15;;;0.73;;
43670;SDS011;29267;50.906;7.248;2024-03-25T14:02:15;4.00;;;1.13;;
43670;SDS011;29267;50.906;7.248;2024-03-25T14:04:40;3.13;;;1.17;;
43670;SDS011;29267;50.906;7.248;2024-03-25T14:07:06;6.82;;;0.73;;
43670;SDS011;29267;50.906;7.248;2024-03-25T14:09:31;5.03;;;1.38;;
43670;SDS011;29267;50.906;7.248;2024-03-25T14:11:57;2.55;;;0.82;;
43670;SDS011;29267;50.906;7.248;2024-03-25T14:14:22;4.32;;;1.27;;
43670;SDS011;29267;50.906;7.248;2024-03-25T14:16:48;4.93;;;1.63;;
43670;SDS011;29267;50.906;7.248;2024-03-25T14:19:14;3.80;;;1.20;;
43670;SDS011;29267;50.906;7.248;2024-03-25T14:21:39;3.50;;;1.10;;
43670;SDS011;29267;50.906;7.248;2024-03-25T14:24:05;13.48;;;1.95;;
43670;SDS011;29267;50.906;7.248;2024-03-25T14:26:31;4.10;;;1.30;;
43670;SDS011;29267;50.906;7.248;2024-03-25T14:28:57;6.90;;;1.23;;
43670;SDS011;29267;50.906;7.248;2024-03-25T14:31:24;7.25;;;1.00;;
43670;SDS011;29267;50.906;7.248;2024-03-25T14:33:50;4.82;;;1.02;;
43670;SDS011;29267;50.906;7.248;2024-03-25T14:36:16;4.22;;;1.17;;
43670;SDS011;29267;50.906;7.248;2024-03-25T14:38:42;3.58;;;1.13;;